createdAt,value
2023-04-01T00:02:54.290Z,8.20
2023-04-01T00:05:43.528Z,8.20
2023-04-01T00:08:32.183Z,9.70
2023-04-01T00:11:20.969Z,7.90
2023-04-01T00:14:09.770Z,8.30
2023-04-01T00:16:58.748Z,9.20
2023-04-01T00:19:47.295Z,8.10
2023-04-01T00:22:36.182Z,7.40
2023-04-01T00:25:26.223Z,8.90
2023-04-01T00:28:17.584Z,9.80
2023-04-01T00:31:07.737Z,7.50
2023-04-01T00:33:57.502Z,7.00
2023-04-01T00:36:46.027Z,9.60
2023-04-01T00:39:35.742Z,10.70
2023-04-01T00:42:24.740Z,8.60
2023-04-01T00:45:33.408Z,9.90
2023-04-01T00:48:31.537Z,6.80
2023-04-01T00:51:25.041Z,8.20
2023-04-01T00:54:15.607Z,9.20
2023-04-01T00:57:13.150Z,9.10
2023-04-01T01:00:02.197Z,9.10
2023-04-01T01:03:18.422Z,9.70
2023-04-01T01:06:12.244Z,7.80
2023-04-01T01:09:09.026Z,6.20
2023-04-01T01:12:08.852Z,8.90
2023-04-01T01:15:09.558Z,9.80
2023-04-01T01:18:20.185Z,9.10
2023-04-01T01:21:43.077Z,9.00
2023-04-01T01:24:40.711Z,7.90
2023-04-01T01:27:30.513Z,9.80
2023-04-01T01:30:44.150Z,7.90
2023-04-01T01:34:14.614Z,8.10
2023-04-01T01:37:09.874Z,8.50
2023-04-01T01:40:12.533Z,9.00
2023-04-01T01:43:06.686Z,8.60
2023-04-01T01:46:00.329Z,8.50
2023-04-01T01:48:51.827Z,10.90
2023-04-01T01:51:40.996Z,10.50
2023-04-01T01:54:33.766Z,9.00
2023-04-01T01:57:48.612Z,8.30
2023-04-01T02:00:41.480Z,8.20
2023-04-01T02:06:23.796Z,7.20
2023-04-01T02:09:12.835Z,8.30
2023-04-01T02:12:08.215Z,9.70
2023-04-01T02:15:20.212Z,9.00
2023-04-01T02:18:10.389Z,7.60
2023-04-01T02:21:00.768Z,8.90
2023-04-01T02:23:51.205Z,7.80
2023-04-01T02:26:40.940Z,7.80
2023-04-01T02:29:29.532Z,8.10
2023-04-01T02:32:20.669Z,8.20
2023-04-01T02:35:12.260Z,10.20
2023-04-01T02:38:02.272Z,5.90
2023-04-01T02:40:57.482Z,10.60
2023-04-01T02:43:46.157Z,7.90
2023-04-01T02:46:35.545Z,7.60
2023-04-01T02:49:24.274Z,8.30
2023-04-01T02:52:13.052Z,9.10
2023-04-01T02:55:02.259Z,8.80
2023-04-01T02:57:51.331Z,7.50
2023-04-01T03:00:40.032Z,6.90
2023-04-01T03:03:29.026Z,8.40
2023-04-01T03:06:18.519Z,9.40
2023-04-01T03:09:07.603Z,7.00
2023-04-01T03:11:56.325Z,8.30
2023-04-01T03:14:45.501Z,8.70
2023-04-01T03:17:34.137Z,8.00
2023-04-01T03:20:22.996Z,8.60
2023-04-01T03:23:12.304Z,10.50
2023-04-01T03:26:01.258Z,8.60
2023-04-01T03:28:49.998Z,7.50
2023-04-01T03:31:39.172Z,10.80
2023-04-01T03:34:27.783Z,6.30
2023-04-01T03:37:16.875Z,6.00
2023-04-01T03:40:06.310Z,9.60
2023-04-01T03:42:55.246Z,7.00
2023-04-01T03:45:48.642Z,6.30
2023-04-01T03:48:37.435Z,5.80
2023-04-01T03:51:26.800Z,5.70
2023-04-01T03:54:15.660Z,6.60
2023-04-01T03:57:06.456Z,7.90
2023-04-01T03:59:58.502Z,7.10
2023-04-01T04:02:48.310Z,9.30
2023-04-01T04:05:49.487Z,8.20
2023-04-01T04:08:39.610Z,6.70
2023-04-01T04:11:28.378Z,8.00
2023-04-01T04:14:17.036Z,7.90
2023-04-01T04:17:07.358Z,7.60
2023-04-01T04:19:56.190Z,10.70
2023-04-01T04:22:44.842Z,7.70
2023-04-01T04:25:34.600Z,10.70
2023-04-01T04:28:24.141Z,10.40
2023-04-01T04:31:20.755Z,5.50
2023-04-01T04:34:09.698Z,7.00
2023-04-01T04:36:58.857Z,5.70
2023-04-01T04:39:51.106Z,10.90
2023-04-01T04:42:39.968Z,6.60
2023-04-01T04:48:21.381Z,8.80
2023-04-01T04:51:15.775Z,6.80
2023-04-01T04:54:05.226Z,10.50
2023-04-01T04:57:08.273Z,8.60
2023-04-01T05:00:02.553Z,8.30
2023-04-01T05:03:04.544Z,9.10
2023-04-01T05:05:55.892Z,8.50
2023-04-01T05:08:50.598Z,8.10
2023-04-01T05:11:42.434Z,6.00
2023-04-01T05:14:32.982Z,7.20
2023-04-01T05:17:27.458Z,7.10
2023-04-01T05:20:16.914Z,6.70
2023-04-01T05:23:05.847Z,6.70
2023-04-01T05:25:54.662Z,8.60
2023-04-01T05:28:43.990Z,6.70
2023-04-01T05:31:32.793Z,6.60
2023-04-01T05:34:23.025Z,6.80
2023-04-01T05:37:12.232Z,8.00
2023-04-01T05:40:01.543Z,10.60
2023-04-01T05:42:51.156Z,8.30
2023-04-01T05:45:40.343Z,9.80
2023-04-01T05:48:52.231Z,9.50
2023-04-01T05:51:41.245Z,14.80
2023-04-01T05:54:30.180Z,7.00
2023-04-01T05:57:18.979Z,9.50
2023-04-01T06:00:08.244Z,7.80
2023-04-01T06:03:01.082Z,7.40
2023-04-01T06:05:50.636Z,6.70
2023-04-01T06:08:39.464Z,6.50
2023-04-01T06:12:01.991Z,6.80
2023-04-01T06:15:22.134Z,8.30
2023-04-01T06:18:30.061Z,7.60
2023-04-01T06:21:52.695Z,7.70
2023-04-01T06:24:57.846Z,8.30
2023-04-01T06:28:27.687Z,7.90
2023-04-01T06:31:16.361Z,8.30
2023-04-01T06:34:16.994Z,8.30
2023-04-01T06:37:06.888Z,6.70
2023-04-01T06:39:55.408Z,7.20
2023-04-01T06:43:19.742Z,9.30
2023-04-01T06:46:46.994Z,7.70
2023-04-01T06:50:27.722Z,5.10
2023-04-01T06:53:38.076Z,7.10
2023-04-01T06:56:49.849Z,7.30
2023-04-01T06:59:45.442Z,6.60
2023-04-01T07:02:54.682Z,7.40
2023-04-01T07:05:45.145Z,6.90
2023-04-01T07:08:41.603Z,7.90
2023-04-01T07:11:35.546Z,7.40
2023-04-01T07:14:44.123Z,9.00
2023-04-01T07:17:37.003Z,6.10
2023-04-01T07:20:33.110Z,6.60
2023-04-01T07:23:27.354Z,5.70
2023-04-01T07:26:26.084Z,8.80
2023-04-01T07:29:29.812Z,7.60
2023-04-01T07:32:46.295Z,7.40
2023-04-01T07:35:41.146Z,9.10
2023-04-01T07:38:50.832Z,7.50
2023-04-01T07:42:02.640Z,7.50
2023-04-01T07:45:16.523Z,7.50
2023-04-01T07:48:05.335Z,6.70
2023-04-01T07:51:08.709Z,7.20
2023-04-01T07:54:11.429Z,7.40
2023-04-01T07:57:18.611Z,6.90
2023-04-01T08:00:32.444Z,6.70
2023-04-01T08:03:58.729Z,7.20
2023-04-01T08:06:56.783Z,7.40
2023-04-01T08:10:07.642Z,5.70
2023-04-01T08:13:39.733Z,8.60
2023-04-01T08:17:01.938Z,7.00
2023-04-01T08:20:25.186Z,6.50
2023-04-01T08:23:18.506Z,8.20
2023-04-01T08:26:27.178Z,7.10
2023-04-01T08:29:28.514Z,7.90
2023-04-01T08:32:30.720Z,6.50
2023-04-01T08:35:37.678Z,6.70
2023-04-01T08:38:56.266Z,6.70
2023-04-01T08:42:24.856Z,6.10
2023-04-01T08:45:46.081Z,8.00
2023-04-01T08:49:15.545Z,5.20
2023-04-01T08:52:41.923Z,5.20
2023-04-01T08:55:45.908Z,5.30
2023-04-01T08:59:00.799Z,5.40
2023-04-01T09:02:30.891Z,5.30
2023-04-01T09:06:07.156Z,4.90
2023-04-01T09:09:23.023Z,4.20
2023-04-01T09:12:25.584Z,4.30
2023-04-01T09:16:01.060Z,4.20
2023-04-01T09:19:40.912Z,5.20
2023-04-01T09:22:43.715Z,4.30
2023-04-01T09:26:14.818Z,4.80
2023-04-01T09:29:14.665Z,4.70
2023-04-01T09:32:19.676Z,3.60
2023-04-01T09:35:43.852Z,5.10
2023-04-01T09:38:58.528Z,6.30
2023-04-01T09:41:53.882Z,5.80
2023-04-01T09:45:06.821Z,4.60
2023-04-01T09:48:07.172Z,5.10
2023-04-01T09:51:18.325Z,4.80
2023-04-01T09:54:13.567Z,4.60
2023-04-01T09:57:09.007Z,4.70
2023-04-01T10:00:02.353Z,5.10
2023-04-01T10:03:21.111Z,5.40
2023-04-01T10:06:26.191Z,4.80
2023-04-01T10:09:37.204Z,3.60
2023-04-01T10:12:33.456Z,4.40
2023-04-01T10:15:52.165Z,4.00
2023-04-01T10:19:09.063Z,5.00
2023-04-01T10:22:09.966Z,4.80
2023-04-01T10:25:05.585Z,4.70
2023-04-01T10:28:47.457Z,4.50
2023-04-01T10:32:47.130Z,5.20
2023-04-01T10:35:48.236Z,5.00
2023-04-01T10:38:52.081Z,4.90
2023-04-01T10:41:59.808Z,4.00
2023-04-01T10:45:36.372Z,3.60
2023-04-01T10:48:41.411Z,3.30
2023-04-01T10:52:17.457Z,3.70
2023-04-01T10:55:49.954Z,4.50
2023-04-01T10:59:29.352Z,8.90
2023-04-01T11:03:00.419Z,10.30
2023-04-01T11:06:46.201Z,11.50
2023-04-01T11:10:03.255Z,7.40
2023-04-01T11:13:10.342Z,7.20
2023-04-01T11:16:18.443Z,5.60
2023-04-01T11:19:20.900Z,3.40
2023-04-01T11:22:28.465Z,3.50
2023-04-01T11:25:48.786Z,3.80
2023-04-01T11:29:17.687Z,3.60
2023-04-01T11:32:33.730Z,3.30
2023-04-01T11:35:35.068Z,3.60
2023-04-01T11:39:15.082Z,2.70
2023-04-01T11:43:07.135Z,4.30
2023-04-01T11:46:43.715Z,3.20
2023-04-01T11:49:57.283Z,3.60
2023-04-01T11:53:11.195Z,3.60
2023-04-01T11:56:31.052Z,4.60
2023-04-01T11:59:41.560Z,3.70
2023-04-01T12:02:49.926Z,2.50
2023-04-01T12:06:01.151Z,3.50
2023-04-01T12:09:10.544Z,2.50
2023-04-01T12:12:19.438Z,3.40
2023-04-01T12:15:41.995Z,2.90
2023-04-01T12:18:47.681Z,1.90
2023-04-01T12:21:46.445Z,2.60
2023-04-01T12:24:48.587Z,2.30
2023-04-01T12:27:46.682Z,2.10
2023-04-01T12:30:49.167Z,2.90
2023-04-01T12:34:20.284Z,3.00
2023-04-01T12:37:22.995Z,4.10
2023-04-01T12:40:33.389Z,2.30
2023-04-01T12:44:14.322Z,4.40
2023-04-01T12:47:41.931Z,3.30
2023-04-01T12:50:41.075Z,2.80
2023-04-01T12:54:10.048Z,4.20
2023-04-01T12:56:59.529Z,4.20
2023-04-01T13:00:29.012Z,5.30
2023-04-01T13:03:32.754Z,4.60
2023-04-01T13:06:49.246Z,6.20
2023-04-01T13:09:52.592Z,7.50
2023-04-01T13:12:52.431Z,12.30
2023-04-01T13:15:44.596Z,5.20
2023-04-01T13:19:02.356Z,10.50
2023-04-01T13:22:14.671Z,11.50
2023-04-01T13:25:19.266Z,8.40
2023-04-01T13:28:19.673Z,7.10
2023-04-01T13:31:48.352Z,8.20
2023-04-01T13:34:52.272Z,13.00
2023-04-01T13:38:13.351Z,24.70
2023-04-01T13:41:26.617Z,6.60
2023-04-01T13:44:44.350Z,15.60
2023-04-01T13:47:57.631Z,9.70
2023-04-01T13:50:58.082Z,10.20
2023-04-01T13:54:26.501Z,26.10
2023-04-01T13:57:43.012Z,9.80
2023-04-01T14:00:43.793Z,6.20
2023-04-01T14:03:40.606Z,5.10
2023-04-01T14:06:58.229Z,6.00
2023-04-01T14:10:16.061Z,8.50
2023-04-01T14:13:07.521Z,11.20
2023-04-01T14:16:22.258Z,9.20
2023-04-01T14:19:40.465Z,7.80
2023-04-01T14:22:59.087Z,7.30
2023-04-01T14:26:05.270Z,7.10
2023-04-01T14:28:59.999Z,11.30
2023-04-01T14:32:07.791Z,12.60
2023-04-01T14:35:33.753Z,8.40
2023-04-01T14:38:32.638Z,16.90
2023-04-01T14:41:39.844Z,11.80
2023-04-01T14:44:58.027Z,13.60
2023-04-01T14:47:55.603Z,18.80
2023-04-01T14:50:55.137Z,14.20
2023-04-01T14:54:14.933Z,17.50
2023-04-01T14:57:12.428Z,18.00
2023-04-01T15:00:14.848Z,28.70
2023-04-01T15:03:15.930Z,12.10
2023-04-01T15:06:35.511Z,11.80
2023-04-01T15:09:49.473Z,31.70
2023-04-01T15:13:05.486Z,19.20
2023-04-01T15:16:12.913Z,24.00
2023-04-01T15:19:32.597Z,24.00
2023-04-01T15:22:30.292Z,19.60
2023-04-01T15:25:32.599Z,24.10
2023-04-01T15:28:42.248Z,18.30
2023-04-01T15:32:15.245Z,9.50
2023-04-01T15:35:32.484Z,15.00
2023-04-01T15:39:00.463Z,29.20
2023-04-01T15:42:05.673Z,14.40
2023-04-01T15:45:17.967Z,19.80
2023-04-01T15:48:18.658Z,19.50
2023-04-01T15:51:30.115Z,18.10
2023-04-01T15:57:32.457Z,23.80
2023-04-01T16:00:29.504Z,30.00
2023-04-01T16:03:46.156Z,18.70
2023-04-01T16:06:35.615Z,14.10
2023-04-01T16:09:30.989Z,13.60
2023-04-01T16:12:40.847Z,14.00
2023-04-01T16:15:41.390Z,16.30
2023-04-01T16:18:42.974Z,14.00
2023-04-01T16:21:53.060Z,14.40
2023-04-01T16:24:56.138Z,17.00
2023-04-01T16:27:56.772Z,21.60
2023-04-01T16:30:58.234Z,40.30
2023-04-01T16:34:10.647Z,40.40
2023-04-01T16:37:08.559Z,27.80
2023-04-01T16:40:35.612Z,39.00
2023-04-01T16:43:37.073Z,50.70
2023-04-01T16:46:35.403Z,30.20
2023-04-01T16:49:40.874Z,35.90
2023-04-01T16:52:54.320Z,25.10
2023-04-01T16:55:54.205Z,27.40
2023-04-01T16:59:03.667Z,30.20
2023-04-01T17:02:02.935Z,38.00
2023-04-01T17:05:09.404Z,30.10
2023-04-01T17:08:11.693Z,31.60
2023-04-01T17:11:22.020Z,28.10
2023-04-01T17:14:31.982Z,28.80
2023-04-01T17:17:38.207Z,35.80
2023-04-01T17:20:38.893Z,41.00
2023-04-01T17:24:05.018Z,25.80
2023-04-01T17:27:17.207Z,31.90
2023-04-01T17:30:32.230Z,34.50
2023-04-01T17:33:47.601Z,39.70
2023-04-01T17:36:54.952Z,33.30
2023-04-01T17:39:50.487Z,25.50
2023-04-01T17:42:47.947Z,29.20
2023-04-01T17:46:08.766Z,28.00
2023-04-01T17:49:31.623Z,31.30
2023-04-01T17:52:29.660Z,32.10
2023-04-01T17:55:57.034Z,45.20
2023-04-01T17:58:51.450Z,43.50
2023-04-01T18:01:58.573Z,34.50
2023-04-01T18:05:17.271Z,36.20
2023-04-01T18:08:06.817Z,36.30
2023-04-01T18:11:11.131Z,29.70
2023-04-01T18:14:18.531Z,34.00
2023-04-01T18:17:18.999Z,34.60
2023-04-01T18:20:33.509Z,34.20
2023-04-01T18:23:52.201Z,32.90
2023-04-01T18:26:51.206Z,51.20
2023-04-01T18:29:49.931Z,32.50
2023-04-01T18:32:51.987Z,34.00
2023-04-01T18:35:59.535Z,33.50
2023-04-01T18:38:57.338Z,34.30
2023-04-01T18:41:57.110Z,31.40
2023-04-01T18:45:03.267Z,30.30
2023-04-01T18:48:02.413Z,35.00
2023-04-01T18:51:00.145Z,30.90
2023-04-01T18:54:04.032Z,39.10
2023-04-01T18:57:03.410Z,41.10
2023-04-01T19:00:05.588Z,43.60
2023-04-01T19:02:56.945Z,47.00
2023-04-01T19:05:48.330Z,36.10
2023-04-01T19:08:41.953Z,41.00
2023-04-01T19:11:58.839Z,42.40
2023-04-01T19:15:16.964Z,32.40
2023-04-01T19:18:33.531Z,32.70
2023-04-01T19:21:40.527Z,40.70
2023-04-01T19:24:53.160Z,36.50
2023-04-01T19:28:09.201Z,37.60
2023-04-01T19:31:09.380Z,40.30
2023-04-01T19:34:04.092Z,44.10
2023-04-01T19:37:06.079Z,41.90
2023-04-01T19:40:19.504Z,42.70
2023-04-01T19:43:20.358Z,40.90
2023-04-01T19:46:32.373Z,36.80
2023-04-01T19:49:52.464Z,41.70
2023-04-01T19:52:42.322Z,37.60
2023-04-01T19:55:34.244Z,34.40
2023-04-01T19:58:39.386Z,34.40
2023-04-01T20:01:49.772Z,35.90
2023-04-01T20:04:49.855Z,34.80
2023-04-01T20:07:57.817Z,32.90
2023-04-01T20:11:08.877Z,34.60
2023-04-01T20:14:02.964Z,34.40
2023-04-01T20:17:02.625Z,36.60
2023-04-01T20:20:10.191Z,35.60
2023-04-01T20:23:01.756Z,39.90
2023-04-01T20:25:55.145Z,60.20
2023-04-01T20:29:20.659Z,66.20
2023-04-01T20:32:27.901Z,80.50
2023-04-01T20:35:47.540Z,79.70
2023-04-01T20:39:14.283Z,62.80
2023-04-01T20:42:29.934Z,48.40
2023-04-01T20:45:35.263Z,42.30
2023-04-01T20:48:44.432Z,42.30
2023-04-01T20:51:39.283Z,40.90
2023-04-01T20:54:35.137Z,39.70
2023-04-01T20:57:39.921Z,38.40
2023-04-01T21:00:41.439Z,41.60
2023-04-01T21:04:01.764Z,39.30
2023-04-01T21:07:28.892Z,48.60
2023-04-01T21:10:42.131Z,46.80
2023-04-01T21:13:47.540Z,41.10
2023-04-01T21:16:50.635Z,44.90
2023-04-01T21:20:02.376Z,50.70
2023-04-01T21:23:22.295Z,41.30
2023-04-01T21:26:43.674Z,47.90
2023-04-01T21:30:03.637Z,48.00
2023-04-01T21:33:05.134Z,44.00
2023-04-01T21:36:22.091Z,45.00
2023-04-01T21:39:24.334Z,44.80
2023-04-01T21:43:05.387Z,48.90
2023-04-01T21:46:02.684Z,42.80
2023-04-01T21:49:21.370Z,43.40
2023-04-01T21:52:33.892Z,41.50
2023-04-01T21:56:03.001Z,46.90
2023-04-01T21:59:20.592Z,40.80
2023-04-01T22:02:49.367Z,42.80
2023-04-01T22:06:01.645Z,47.30
2023-04-01T22:09:21.638Z,39.40
2023-04-01T22:12:20.017Z,39.90
2023-04-01T22:15:53.280Z,30.00
2023-04-01T22:19:03.959Z,32.50
2023-04-01T22:22:04.775Z,28.80
2023-04-01T22:25:16.705Z,30.90
2023-04-01T22:28:10.915Z,29.60
2023-04-01T22:31:04.230Z,26.30
2023-04-01T22:34:14.766Z,24.50
2023-04-01T22:37:15.490Z,24.50
2023-04-01T22:40:22.802Z,25.20
2023-04-01T22:43:26.776Z,21.10
2023-04-01T22:46:18.415Z,21.70
2023-04-01T22:49:35.800Z,18.50
2023-04-01T22:52:35.103Z,16.70
2023-04-01T22:55:31.018Z,16.30
2023-04-01T22:58:29.892Z,16.80
2023-04-01T23:01:26.384Z,15.00
2023-04-01T23:04:21.095Z,15.20
2023-04-01T23:07:34.418Z,19.60
2023-04-01T23:10:38.701Z,17.40
2023-04-01T23:13:36.423Z,16.40
2023-04-01T23:16:34.626Z,17.80
2023-04-01T23:19:50.823Z,16.20
2023-04-01T23:22:54.227Z,15.70
2023-04-01T23:26:01.432Z,17.10
2023-04-01T23:28:53.247Z,20.00
2023-04-01T23:31:43.838Z,20.60
2023-04-01T23:34:36.885Z,18.90
2023-04-01T23:37:27.195Z,20.50
2023-04-01T23:40:16.029Z,20.80
2023-04-01T23:43:14.856Z,21.10
2023-04-01T23:46:05.132Z,21.40
2023-04-01T23:48:54.785Z,24.80
2023-04-01T23:52:11.944Z,24.60
2023-04-01T23:55:13.003Z,22.60
2023-04-01T23:58:07.628Z,20.90
